Time;durP1;ratioP1;P1;durP2;ratioP2;P2;SDS_P1;SDS_P2;PMS_P1;PMS_P2;Temp;Humidity;BMP_temperature;BMP_pressure;BME280_temperature;BME280_humidity;BME280_pressure;Samples;Min_cycle;Max_cycle;Signal;HPM_P1;HPM_P2
2024/02/15 00:03:54;;;;;;;0.80;0.80;;;22.00;49.30;;;;;;10365834;28;20041;-58
2024/02/15 00:08:57;;;;;;;0.95;0.88;;;22.00;49.40;;;;;;10355383;28;20046;-60
2024/02/15 00:13:58;;;;;;;0.70;0.70;;;22.00;49.30;;;;;;10352614;28;20137;-59
2024/02/15 00:19:00;;;;;;;0.93;0.80;;;21.80;49.60;;;;;;10361360;28;20049;-61
2024/02/15 00:24:03;;;;;;;1.08;0.73;;;21.90;49.30;;;;;;10363412;28;20072;-60
2024/02/15 00:29:05;;;;;;;0.80;0.80;;;21.90;49.50;;;;;;10356626;28;20068;-59
2024/02/15 00:34:06;;;;;;;0.80;0.75;;;21.70;49.60;;;;;;10366473;28;20160;-61
2024/02/15 00:39:11;;;;;;;0.70;0.70;;;21.80;49.50;;;;;;10368149;28;20133;-60
2024/02/15 00:44:13;;;;;;;0.90;0.80;;;21.70;49.70;;;;;;10363465;28;20049;-60
2024/02/15 00:49:14;;;;;;;0.70;0.70;;;21.70;49.70;;;;;;10347256;28;20057;-58
2024/02/15 00:54:17;;;;;;;0.93;0.60;;;21.80;49.50;;;;;;10356829;28;20042;-60
2024/02/15 00:59:19;;;;;;;0.77;0.70;;;21.70;50.20;;;;;;10356933;28;20512;-60
2024/02/15 01:04:20;;;;;;;0.85;0.60;;;21.60;49.70;;;;;;10363630;28;20037;-60
2024/02/15 01:09:23;;;;;;;0.70;0.70;;;21.70;49.50;;;;;;10365549;28;20128;-59
2024/02/15 01:14:29;;;;;;;0.80;0.70;;;21.50;49.80;;;;;;10355953;28;20042;-58
2024/02/15 01:19:31;;;;;;;0.80;0.70;;;21.50;49.70;;;;;;10362495;28;20054;-61
2024/02/15 01:24:34;;;;;;;0.70;0.70;;;21.50;49.90;;;;;;10366043;28;20053;-60
2024/02/15 01:29:36;;;;;;;0.77;0.77;;;21.50;49.80;;;;;;10365802;28;20050;-60
2024/02/15 01:34:37;;;;;;;0.73;0.68;;;21.40;49.80;;;;;;10361270;28;20046;-60
2024/02/15 01:39:41;;;;;;;0.93;0.70;;;21.30;50.00;;;;;;10360331;28;20048;-60
2024/02/15 01:44:43;;;;;;;0.55;0.50;;;21.40;49.60;;;;;;10361198;28;20058;-60
2024/02/15 01:49:45;;;;;;;0.55;0.55;;;21.30;50.00;;;;;;10363157;28;20060;-59
2024/02/15 01:54:48;;;;;;;0.63;0.63;;;21.30;50.00;;;;;;10364597;28;20064;-59
2024/02/15 01:59:51;;;;;;;0.60;0.60;;;21.30;50.10;;;;;;10366007;28;20048;-61
2024/02/15 02:04:53;;;;;;;0.85;0.60;;;21.20;50.10;;;;;;10362232;28;20144;-60
2024/02/15 02:09:56;;;;;;;1.30;0.70;;;21.10;50.20;;;;;;10361294;28;20046;-58
2024/02/15 02:14:57;;;;;;;0.73;0.70;;;21.20;50.10;;;;;;10356437;28;20145;-59
2024/02/15 02:19:59;;;;;;;0.75;0.60;;;21.20;49.90;;;;;;10361744;28;20042;-59
2024/02/15 02:25:07;;;;;;;1.00;0.80;;;21.10;50.00;;;;;;10360673;28;20068;-58
2024/02/15 02:30:15;;;;;;;0.60;0.60;;;21.10;50.60;;;;;;10366175;28;20128;-62
2024/02/15 02:35:16;;;;;;;0.98;0.77;;;21.10;50.60;;;;;;10358093;28;20041;-59
2024/02/15 02:40:19;;;;;;;0.70;0.70;;;21.00;50.20;;;;;;10363142;28;20054;-61
2024/02/15 02:45:22;;;;;;;0.50;0.50;;;21.10;49.90;;;;;;10364766;28;20053;-61
2024/02/15 02:50:24;;;;;;;1.02;0.70;;;21.10;50.00;;;;;;10369938;28;20046;-60
2024/02/15 02:55:27;;;;;;;0.60;0.60;;;21.00;50.10;;;;;;10370984;28;20050;-59
2024/02/15 03:00:29;;;;;;;0.60;0.60;;;20.90;50.10;;;;;;10370965;28;20053;-62
2024/02/15 03:05:31;;;;;;;1.08;0.60;;;20.90;50.00;;;;;;10368252;28;20049;-62
2024/02/15 03:10:34;;;;;;;0.60;0.60;;;20.90;50.80;;;;;;10366853;28;20080;-60
2024/02/15 03:15:35;;;;;;;0.70;0.70;;;20.90;50.20;;;;;;10371113;28;20128;-60
2024/02/15 03:20:38;;;;;;;0.50;0.50;;;20.90;50.20;;;;;;10366509;28;20038;-60
2024/02/15 03:25:41;;;;;;;0.50;0.50;;;20.90;50.20;;;;;;10368896;28;20100;-59
2024/02/15 03:30:43;;;;;;;0.60;0.60;;;20.90;50.00;;;;;;10365186;28;20052;-60
2024/02/15 03:35:44;;;;;;;0.68;0.68;;;20.80;50.10;;;;;;10370573;28;20129;-61
2024/02/15 03:40:47;;;;;;;0.80;0.70;;;20.90;50.00;;;;;;10366902;28;20041;-62
2024/02/15 03:45:49;;;;;;;0.57;0.57;;;20.90;50.10;;;;;;10367990;28;20435;-60
2024/02/15 03:50:50;;;;;;;0.50;0.50;;;20.80;50.10;;;;;;10364796;28;20064;-60
2024/02/15 03:55:53;;;;;;;1.00;0.55;;;20.70;50.40;;;;;;10364719;28;20397;-61
2024/02/15 04:00:56;;;;;;;0.60;0.60;;;20.70;50.30;;;;;;10365655;28;20038;-60
2024/02/15 04:06:00;;;;;;;1.00;0.77;;;20.90;50.00;;;;;;10365618;28;20042;-59
2024/02/15 04:11:04;;;;;;;0.50;0.50;;;21.30;49.00;;;;;;10370174;28;20507;-61
2024/02/15 04:16:06;;;;;;;0.60;0.60;;;21.40;49.50;;;;;;10369580;28;20069;-58
2024/02/15 04:21:08;;;;;;;0.95;0.50;;;21.60;49.30;;;;;;10367110;28;20048;-60
2024/02/15 04:26:13;;;;;;;0.77;0.60;;;21.70;49.00;;;;;;10365668;28;20567;-59
2024/02/15 04:31:15;;;;;;;0.40;0.40;;;21.80;48.70;;;;;;10366085;28;20065;-59
2024/02/15 04:36:23;;;;;;;0.90;0.70;;;21.80;48.70;;;;;;10364206;28;20077;-58
2024/02/15 04:41:26;;;;;;;1.58;0.50;;;21.90;48.60;;;;;;10366484;28;20037;-59
2024/02/15 04:46:27;;;;;;;0.50;0.50;;;22.00;48.40;;;;;;10368859;28;20492;-60
2024/02/15 04:51:29;;;;;;;0.50;0.50;;;22.10;48.20;;;;;;10369998;28;20726;-60
2024/02/15 04:56:33;;;;;;;0.63;0.63;;;22.00;48.50;;;;;;10367006;28;20049;-60
2024/02/15 05:01:34;;;;;;;0.50;0.50;;;22.10;48.40;;;;;;10367160;28;20046;-61
2024/02/15 05:06:36;;;;;;;0.50;0.50;;;22.10;48.50;;;;;;10361003;28;20045;-60
2024/02/15 05:11:41;;;;;;;2.55;0.60;;;22.20;48.20;;;;;;10364457;28;20140;-60
2024/02/15 05:16:43;;;;;;;0.60;0.60;;;22.20;48.60;;;;;;10362039;28;20050;-60
2024/02/15 05:21:45;;;;;;;0.95;0.68;;;22.40;48.80;;;;;;10368745;28;20711;-62
2024/02/15 05:26:50;;;;;;;2.72;0.70;;;22.50;48.50;;;;;;10366147;28;20103;-60
2024/02/15 05:31:51;;;;;;;3.28;0.70;;;22.40;48.50;;;;;;10364787;28;20065;-57
2024/02/15 05:36:53;;;;;;;1.08;0.68;;;22.50;48.60;;;;;;10365896;28;20049;-60
2024/02/15 05:42:00;;;;;;;2.17;0.90;;;22.50;48.60;;;;;;10363107;28;20038;-60
2024/02/15 05:47:02;;;;;;;1.63;0.75;;;22.60;48.60;;;;;;10362772;28;20054;-61
2024/02/15 05:52:04;;;;;;;1.00;0.68;;;22.70;48.90;;;;;;10363539;28;20454;-60
2024/02/15 05:57:07;;;;;;;4.70;0.90;;;22.80;49.00;;;;;;10367000;28;20046;-60
2024/02/15 06:02:09;;;;;;;0.90;0.60;;;22.90;48.90;;;;;;10361623;28;20042;-59
2024/02/15 06:07:10;;;;;;;1.30;0.70;;;22.80;49.00;;;;;;10367381;28;20630;-60
2024/02/15 06:12:13;;;;;;;1.42;0.55;;;22.90;48.50;;;;;;10365352;28;20068;-62
2024/02/15 06:17:15;;;;;;;0.80;0.70;;;23.10;48.10;;;;;;10362020;28;20076;-59
2024/02/15 06:22:16;;;;;;;2.42;0.75;;;23.00;48.00;;;;;;10367829;28;20037;-58
2024/02/15 06:27:19;;;;;;;8.93;1.10;;;23.00;49.10;;;;;;10367032;28;20054;-58
2024/02/15 06:42:57;;;;;;;9.20;1.20;;;23.00;50.30;;;;;;10361233;28;20066;-56
2024/02/15 06:47:59;;;;;;;6.22;1.20;;;22.90;50.80;;;;;;10363318;28;20037;-58
2024/02/15 06:53:00;;;;;;;8.00;1.60;;;23.10;50.90;;;;;;10361881;28;20132;-56
2024/02/15 06:58:05;;;;;;;11.00;1.52;;;23.20;51.70;;;;;;10365506;28;20136;-55
2024/02/15 07:03:08;;;;;;;5.43;1.90;;;23.20;51.40;;;;;;10364208;28;20047;-56
2024/02/15 07:08:10;;;;;;;6.85;1.88;;;23.20;51.80;;;;;;10358434;28;20738;-58
2024/02/15 07:13:13;;;;;;;13.80;2.67;;;23.10;51.90;;;;;;10363468;28;20042;-61
2024/02/15 07:18:17;;;;;;;8.57;4.80;;;23.10;52.50;;;;;;10360678;28;20136;-58
2024/02/15 07:23:18;;;;;;;10.15;5.93;;;22.80;54.00;;;;;;10366489;28;20041;-63
2024/02/15 07:28:21;;;;;;;10.98;6.03;;;22.80;53.90;;;;;;10356499;28;20137;-62
2024/02/15 07:33:23;;;;;;;8.73;6.60;;;22.60;54.60;;;;;;10357513;28;20053;-62
2024/02/15 07:38:25;;;;;;;10.90;6.88;;;22.50;54.40;;;;;;10367298;28;20096;-61
2024/02/15 07:43:28;;;;;;;10.20;6.38;;;22.50;54.10;;;;;;10366173;28;20042;-61
2024/02/15 07:48:30;;;;;;;7.95;6.13;;;22.50;53.70;;;;;;10369078;28;20061;-61
2024/02/15 07:53:31;;;;;;;8.45;6.32;;;22.40;53.20;;;;;;10363028;28;20132;-63
2024/02/15 07:58:34;;;;;;;8.38;5.72;;;22.30;53.40;;;;;;10371275;28;20136;-61
2024/02/15 08:03:36;;;;;;;8.45;4.88;;;22.30;53.40;;;;;;10362168;28;20080;-64
2024/02/15 08:08:37;;;;;;;15.60;5.68;;;22.50;53.70;;;;;;10371078;28;20085;-63
2024/02/15 08:13:40;;;;;;;12.00;5.15;;;22.40;55.30;;;;;;10364486;28;20130;-62
2024/02/15 08:18:43;;;;;;;11.80;5.07;;;22.40;55.50;;;;;;10362019;28;20050;-61
2024/02/15 08:23:45;;;;;;;14.00;6.50;;;22.40;56.10;;;;;;10357209;28;20120;-63
2024/02/15 08:28:48;;;;;;;8.93;6.00;;;22.30;56.40;;;;;;10358643;28;20128;-62
2024/02/15 08:33:49;;;;;;;11.60;6.00;;;22.20;56.40;;;;;;10358785;28;20073;-59
2024/02/15 08:38:51;;;;;;;9.07;6.25;;;22.20;56.00;;;;;;10351833;28;20041;-60
2024/02/15 08:43:56;;;;;;;7.60;6.10;;;22.30;56.00;;;;;;10357102;28;20751;-61
2024/02/15 08:49:00;;;;;;;9.05;5.60;;;22.30;56.10;;;;;;10354597;28;20472;-57
2024/02/15 08:54:03;;;;;;;8.68;4.85;;;22.20;56.30;;;;;;10355439;28;20038;-61
2024/02/15 08:59:06;;;;;;;16.17;4.00;;;22.50;56.70;;;;;;10359323;28;20531;-57
2024/02/15 09:04:07;;;;;;;12.75;3.75;;;22.80;56.40;;;;;;10367088;28;20078;-60
2024/02/15 09:09:09;;;;;;;12.93;3.30;;;22.80;56.70;;;;;;10361074;28;20559;-62
2024/02/15 09:14:12;;;;;;;9.75;3.08;;;22.80;56.70;;;;;;10364212;28;20065;-62
2024/02/15 09:19:14;;;;;;;7.97;2.80;;;22.80;56.70;;;;;;10356125;28;20048;-61
2024/02/15 09:24:16;;;;;;;7.38;2.85;;;22.80;56.50;;;;;;10352376;28;20448;-60
2024/02/15 09:29:19;;;;;;;9.73;2.95;;;22.80;56.20;;;;;;10355959;28;20076;-60
2024/02/15 09:34:21;;;;;;;6.72;2.90;;;22.80;56.30;;;;;;10355205;28;20088;-60
2024/02/15 09:39:22;;;;;;;3.60;2.30;;;22.70;56.20;;;;;;10359575;28;20073;-61
2024/02/15 09:44:27;;;;;;;4.32;2.63;;;22.80;56.10;;;;;;10354276;28;20735;-60
2024/02/15 09:49:29;;;;;;;7.57;2.63;;;22.80;56.00;;;;;;10353876;28;20046;-62
2024/02/15 09:54:31;;;;;;;5.82;2.30;;;22.80;55.80;;;;;;10362906;28;20540;-61
2024/02/15 09:59:36;;;;;;;3.90;2.03;;;22.90;55.70;;;;;;10362281;28;20078;-60
2024/02/15 10:04:38;;;;;;;4.10;2.00;;;23.00;55.30;;;;;;10375695;28;20427;-61
2024/02/15 10:09:42;;;;;;;3.25;2.00;;;23.00;55.20;;;;;;10375553;28;20408;-60
2024/02/15 10:14:49;;;;;;;3.47;1.70;;;23.00;55.30;;;;;;10375199;28;20113;-60
2024/02/15 10:20:04;;;;;;;2.83;1.52;;;22.70;56.10;;;;;;10367429;28;20467;-58
2024/02/15 10:25:12;;;;;;;4.32;1.42;;;22.70;56.10;;;;;;10363261;28;20072;-62
2024/02/15 10:30:19;;;;;;;7.40;2.65;;;22.70;56.20;;;;;;10363901;28;20420;-59
2024/02/15 10:35:21;;;;;;;7.00;1.50;;;23.30;55.40;;;;;;10361323;28;20052;-61
2024/02/15 10:40:23;;;;;;;6.78;1.58;;;23.70;54.50;;;;;;10367625;28;20141;-62
2024/02/15 10:45:26;;;;;;;6.68;1.63;;;23.80;54.00;;;;;;10367265;28;20048;-61
2024/02/15 10:50:27;;;;;;;5.07;1.48;;;23.80;53.00;;;;;;10368481;28;20074;-62
2024/02/15 10:55:38;;;;;;;3.95;1.60;;;23.60;53.80;;;;;;10364140;28;20109;-63
2024/02/15 11:00:41;;;;;;;;;;;23.70;54.00;;;;;;10367754;28;20595;-60
2024/02/15 11:05:43;;;;;;;2.42;1.58;;;23.70;53.90;;;;;;10366072;28;19921;-61
2024/02/15 11:10:44;;;;;;;6.22;1.38;;;23.80;53.50;;;;;;10364336;28;20121;-61
2024/02/15 11:15:49;;;;;;;2.97;1.60;;;23.90;53.60;;;;;;10357685;28;20112;-59
2024/02/15 11:20:52;;;;;;;2.00;1.40;;;23.90;53.90;;;;;;10369939;28;20588;-60
2024/02/15 11:25:56;;;;;;;4.90;1.42;;;24.00;53.80;;;;;;10368623;28;20058;-60
2024/02/15 11:30:59;;;;;;;3.85;1.50;;;24.00;54.10;;;;;;10366471;28;20053;-61
2024/02/15 11:36:03;;;;;;;9.27;1.75;;;24.10;53.70;;;;;;10356628;28;20153;-60
2024/02/15 11:41:05;;;;;;;3.50;1.40;;;24.10;54.30;;;;;;10357110;28;20572;-60
2024/02/15 11:46:10;;;;;;;3.83;1.40;;;24.40;54.00;;;;;;10359651;28;20153;-59
2024/02/15 11:51:12;;;;;;;5.03;1.50;;;24.30;55.00;;;;;;10365103;28;20496;-60
2024/02/15 11:56:15;;;;;;;5.95;1.50;;;24.80;54.00;;;;;;10366464;28;20415;-62
2024/02/15 12:22:42;;;;;;;11.15;1.60;;;24.20;56.80;;;;;;10347157;28;20046;-60
2024/02/15 12:27:43;;;;;;;6.68;1.30;;;24.30;57.00;;;;;;10354816;28;20049;-58
2024/02/15 12:32:47;;;;;;;8.57;2.20;;;24.30;56.40;;;;;;10363393;28;20397;-59
2024/02/15 12:37:50;;;;;;;7.03;1.42;;;24.40;56.20;;;;;;10362014;28;20046;-61
2024/02/15 12:42:51;;;;;;;3.67;1.50;;;24.50;55.80;;;;;;10363290;28;20510;-60
2024/02/15 12:47:55;;;;;;;9.07;1.42;;;24.50;55.80;;;;;;10360967;28;20413;-59
2024/02/15 12:53:01;;;;;;;7.25;1.50;;;24.30;56.80;;;;;;10360561;28;21206;-59
2024/02/15 12:58:08;;;;;;;7.05;1.30;;;24.10;57.90;;;;;;10356174;28;20056;-61
2024/02/15 13:03:11;;;;;;;3.80;0.95;;;24.10;58.30;;;;;;10359470;28;20049;-60
2024/02/15 13:08:13;;;;;;;7.07;1.30;;;24.10;56.80;;;;;;10359127;28;20407;-59
2024/02/15 13:13:16;;;;;;;5.13;1.20;;;24.30;56.40;;;;;;10356619;28;20041;-57
2024/02/15 13:18:19;;;;;;;1.55;1.10;;;24.20;56.40;;;;;;10352558;28;20419;-56
2024/02/15 13:23:22;;;;;;;3.72;0.90;;;24.20;56.40;;;;;;10350016;28;20057;-60
2024/02/15 13:28:24;;;;;;;5.90;1.30;;;24.30;56.20;;;;;;10351346;28;20057;-61
2024/02/15 13:33:31;;;;;;;3.03;1.20;;;24.30;56.00;;;;;;10357435;28;20053;-59
2024/02/15 13:38:33;;;;;;;2.58;1.00;;;24.30;56.10;;;;;;10350854;28;20133;-59
2024/02/15 13:43:34;;;;;;;4.93;1.10;;;24.30;56.00;;;;;;10356694;28;20053;-60
2024/02/15 13:48:37;;;;;;;3.17;1.10;;;24.30;55.90;;;;;;10355793;28;20049;-60
2024/02/15 13:53:39;;;;;;;2.80;1.00;;;24.40;55.70;;;;;;10356974;28;20050;-60
2024/02/15 13:58:41;;;;;;;4.28;1.38;;;24.30;56.00;;;;;;10356192;28;20050;-59
2024/02/15 14:03:45;;;;;;;3.28;0.90;;;24.40;55.70;;;;;;10353407;28;20050;-59
2024/02/15 14:08:47;;;;;;;4.85;1.00;;;24.40;55.70;;;;;;10351303;28;20069;-60
2024/02/15 14:13:48;;;;;;;3.83;1.17;;;24.50;55.40;;;;;;10360191;28;20054;-61
2024/02/15 14:18:51;;;;;;;2.65;1.38;;;24.50;55.20;;;;;;10356479;28;20141;-60
2024/02/15 14:23:53;;;;;;;3.15;1.05;;;24.50;55.00;;;;;;10352779;28;20042;-60
2024/02/15 14:28:55;;;;;;;1.98;1.00;;;24.50;54.90;;;;;;10353008;28;20522;-60
2024/02/15 14:33:57;;;;;;;1.42;0.95;;;24.60;54.60;;;;;;10352293;28;20516;-61
2024/02/15 14:38:59;;;;;;;2.70;1.00;;;24.70;55.10;;;;;;10353868;28;20440;-60
2024/02/15 14:44:01;;;;;;;1.10;0.90;;;24.70;54.40;;;;;;10364365;28;20518;-60
2024/02/15 14:49:04;;;;;;;3.50;1.08;;;24.70;54.30;;;;;;10361592;28;20486;-60
2024/02/15 14:54:06;;;;;;;1.48;1.00;;;24.70;54.20;;;;;;10364103;28;20052;-59
2024/02/15 14:59:07;;;;;;;1.90;1.00;;;24.50;54.40;;;;;;10366519;28;20045;-61
2024/02/15 15:04:11;;;;;;;3.20;1.00;;;24.60;54.30;;;;;;10362015;28;20451;-60
2024/02/15 15:14:32;;;;;;;3.50;0.90;;;24.50;55.20;;;;;;10362228;28;20050;-61
2024/02/15 15:19:36;;;;;;;2.03;1.17;;;24.60;55.20;;;;;;10360770;28;20064;-61
2024/02/15 15:24:40;;;;;;;5.05;1.10;;;24.50;55.60;;;;;;10357114;28;20049;-59
2024/02/15 15:29:42;;;;;;;5.13;0.95;;;24.50;55.60;;;;;;10359524;28;20076;-58
2024/02/15 15:34:45;;;;;;;2.90;0.73;;;24.70;55.00;;;;;;10358212;28;20047;-58
2024/02/15 15:39:46;;;;;;;3.53;1.23;;;24.80;54.90;;;;;;10350190;28;20064;-59
2024/02/15 15:44:49;;;;;;;3.53;0.98;;;25.10;54.20;;;;;;10350511;28;20057;-60
2024/02/15 15:49:55;;;;;;;2.75;0.75;;;25.10;54.10;;;;;;10355739;28;20049;-59
2024/02/15 15:54:56;;;;;;;2.22;0.70;;;25.10;53.90;;;;;;10357959;28;20038;-57
2024/02/15 15:59:58;;;;;;;4.55;0.93;;;25.10;53.80;;;;;;10356008;28;20096;-59
2024/02/15 16:05:01;;;;;;;3.00;0.90;;;24.50;55.40;;;;;;10359978;28;20049;-60
2024/02/15 16:10:03;;;;;;;2.67;0.98;;;24.50;55.50;;;;;;10360315;28;20165;-60
2024/02/15 16:15:06;;;;;;;1.33;0.60;;;24.50;55.60;;;;;;10357399;28;21255;-57
2024/02/15 16:20:10;;;;;;;3.22;0.90;;;24.50;55.70;;;;;;10364631;28;20070;-58
2024/02/15 16:25:11;;;;;;;2.78;0.80;;;24.50;55.80;;;;;;10356431;28;20500;-59
2024/02/15 16:30:13;;;;;;;6.88;0.95;;;24.60;55.60;;;;;;10359076;28;20474;-60
2024/02/15 16:35:19;;;;;;;2.25;0.90;;;24.70;55.50;;;;;;10361752;28;20511;-58
2024/02/15 16:40:22;;;;;;;3.55;0.60;;;24.60;55.70;;;;;;10356881;28;20046;-60
2024/02/15 16:45:24;;;;;;;3.78;1.50;;;24.60;55.70;;;;;;10355323;28;20523;-61
2024/02/15 16:50:27;;;;;;;2.78;0.88;;;24.70;55.40;;;;;;10360153;28;20072;-59
2024/02/15 16:55:30;;;;;;;1.83;0.60;;;24.70;55.30;;;;;;10362917;28;20049;-62
2024/02/15 17:00:32;;;;;;;2.30;0.80;;;24.60;55.10;;;;;;10360566;28;20133;-61
2024/02/15 17:05:36;;;;;;;2.13;0.70;;;24.60;55.20;;;;;;10354613;28;20137;-61
2024/02/15 17:10:37;;;;;;;4.22;0.70;;;24.70;54.90;;;;;;10361638;28;20077;-62
2024/02/15 17:15:39;;;;;;;2.97;0.90;;;24.60;55.00;;;;;;10367084;28;20064;-62
2024/02/15 17:20:42;;;;;;;1.63;0.80;;;24.70;54.50;;;;;;10358728;28;20511;-61
2024/02/15 17:25:45;;;;;;;3.00;0.70;;;24.60;54.70;;;;;;10361914;28;20056;-62
2024/02/15 17:30:47;;;;;;;1.83;0.60;;;24.80;53.70;;;;;;10363076;28;20049;-62
2024/02/15 17:35:50;;;;;;;3.05;0.80;;;24.80;53.80;;;;;;10362833;28;20048;-62
2024/02/15 17:40:52;;;;;;;4.15;0.90;;;25.00;53.10;;;;;;10358128;28;20053;-61
2024/02/15 17:45:54;;;;;;;1.92;0.77;;;25.00;53.00;;;;;;10363502;28;20054;-61
2024/02/15 17:50:57;;;;;;;6.13;0.90;;;25.00;52.90;;;;;;10364636;28;20052;-61
2024/02/15 17:56:00;;;;;;;3.60;1.00;;;24.80;53.30;;;;;;10363439;28;20503;-61
2024/02/15 18:01:02;;;;;;;3.70;0.90;;;24.40;54.50;;;;;;10359861;28;20038;-60
2024/02/15 18:06:06;;;;;;;4.85;1.10;;;24.30;55.40;;;;;;10362319;28;20052;-59
2024/02/15 18:11:08;;;;;;;4.25;1.08;;;24.30;56.40;;;;;;10351126;28;20511;-58
2024/02/15 18:16:11;;;;;;;6.40;1.08;;;24.10;57.50;;;;;;10362935;28;20084;-58
2024/02/15 18:21:14;;;;;;;8.75;1.15;;;24.30;57.50;;;;;;10363773;28;20459;-60
2024/02/15 18:26:16;;;;;;;9.88;1.33;;;24.30;57.70;;;;;;10365167;28;20041;-61
2024/02/15 18:31:17;;;;;;;4.22;1.10;;;24.50;57.00;;;;;;10361100;28;20042;-60
2024/02/15 18:36:21;;;;;;;3.65;1.33;;;24.90;56.30;;;;;;10368517;28;20100;-61
2024/02/15 18:41:22;;;;;;;17.80;1.70;;;25.20;55.20;;;;;;10368374;28;20050;-60
2024/02/15 18:46:24;;;;;;;12.95;1.63;;;25.50;54.60;;;;;;10362018;28;20129;-60
2024/02/15 18:51:27;;;;;;;8.75;1.40;;;25.40;55.00;;;;;;10362901;28;20500;-61
2024/02/15 18:56:28;;;;;;;11.55;1.48;;;25.50;54.60;;;;;;10359922;28;20120;-61
2024/02/15 19:01:32;;;;;;;9.30;1.13;;;25.70;54.20;;;;;;10364939;28;20041;-61
2024/02/15 19:06:39;;;;;;;6.50;1.20;;;26.00;53.40;;;;;;10360454;28;20054;-61
2024/02/15 19:11:41;;;;;;;8.20;1.67;;;25.90;53.40;;;;;;10363112;28;20050;-63
2024/02/15 19:16:43;;;;;;;5.00;1.08;;;25.80;53.90;;;;;;10364242;28;20052;-61
2024/02/15 19:21:46;;;;;;;4.10;1.15;;;25.90;53.40;;;;;;10363982;28;20176;-63
2024/02/15 19:26:48;;;;;;;4.78;1.10;;;25.80;53.50;;;;;;10361890;28;20504;-62
2024/02/15 19:31:50;;;;;;;3.38;1.10;;;25.70;53.50;;;;;;10359283;28;20411;-59
2024/02/15 19:36:53;;;;;;;3.55;1.20;;;25.70;53.70;;;;;;10361542;28;20042;-59
2024/02/15 19:41:55;;;;;;;9.10;1.58;;;25.40;53.90;;;;;;10364155;28;20100;-62
2024/02/15 19:46:57;;;;;;;5.05;1.30;;;25.30;54.10;;;;;;10356899;28;20053;-60
2024/02/15 19:52:00;;;;;;;5.70;1.02;;;25.20;54.20;;;;;;10359454;28;20056;-59
2024/02/15 19:57:03;;;;;;;5.95;1.48;;;25.30;53.90;;;;;;10360182;28;20618;-57
2024/02/15 20:02:05;;;;;;;4.32;1.20;;;25.10;54.60;;;;;;10361448;28;20053;-59
2024/02/15 20:07:08;;;;;;;12.27;2.00;;;24.90;55.30;;;;;;10358526;28;20385;-59
2024/02/15 20:12:11;;;;;;;5.68;1.95;;;25.10;53.30;;;;;;10358185;28;20042;-59
2024/02/15 20:17:13;;;;;;;8.88;1.88;;;25.40;52.10;;;;;;10357819;28;20515;-60
2024/02/15 20:22:16;;;;;;;7.55;2.15;;;25.40;51.90;;;;;;10364380;28;20054;-59
2024/02/15 20:27:20;;;;;;;8.73;2.60;;;25.20;51.50;;;;;;10360544;28;20057;-58
2024/02/15 20:32:22;;;;;;;4.78;2.50;;;25.10;51.90;;;;;;10359964;28;20085;-59
2024/02/15 20:37:25;;;;;;;4.88;1.90;;;25.10;51.60;;;;;;10357239;28;20511;-59
2024/02/15 20:42:27;;;;;;;8.73;2.80;;;25.00;51.20;;;;;;10361194;28;20068;-60
2024/02/15 20:47:31;;;;;;;5.78;2.90;;;24.90;51.10;;;;;;10351286;28;20058;-60
2024/02/15 20:52:34;;;;;;;6.13;3.00;;;24.90;51.00;;;;;;10365697;28;20050;-59
2024/02/15 20:57:38;;;;;;;7.57;3.22;;;24.80;50.90;;;;;;10360812;28;20060;-60
2024/02/15 21:02:40;;;;;;;5.43;3.22;;;24.70;50.90;;;;;;10359634;28;20057;-59
2024/02/15 21:07:44;;;;;;;8.63;3.33;;;24.70;50.60;;;;;;10358321;28;20049;-59
2024/02/15 21:12:45;;;;;;;6.30;3.30;;;24.50;50.80;;;;;;10357122;28;20092;-59
2024/02/15 21:17:47;;;;;;;6.40;3.40;;;24.40;51.30;;;;;;10358874;28;20057;-59
2024/02/15 21:22:54;;;;;;;6.75;2.92;;;24.40;51.00;;;;;;10351086;28;20077;-60
2024/02/15 21:27:55;;;;;;;7.25;3.47;;;24.30;51.10;;;;;;10351153;28;20050;-60
2024/02/15 21:32:58;;;;;;;6.35;3.22;;;24.20;51.00;;;;;;10353293;28;20562;-57
2024/02/15 21:38:02;;;;;;;4.25;2.95;;;24.10;51.10;;;;;;10359006;28;20100;-60
2024/02/15 21:43:04;;;;;;;7.30;3.30;;;24.00;51.20;;;;;;10359371;28;20579;-59
2024/02/15 21:48:07;;;;;;;5.78;3.25;;;23.90;51.40;;;;;;10356971;28;20053;-60
2024/02/15 21:53:10;;;;;;;6.15;2.95;;;23.80;51.60;;;;;;10355594;28;20048;-60
2024/02/15 21:58:11;;;;;;;5.38;2.90;;;23.70;51.80;;;;;;10355996;28;20054;-58
2024/02/15 22:03:13;;;;;;;4.30;2.78;;;23.60;51.70;;;;;;10359343;28;20052;-60
2024/02/15 22:08:16;;;;;;;6.20;2.60;;;23.50;51.90;;;;;;10362873;28;20056;-60
2024/02/15 22:13:18;;;;;;;3.92;2.55;;;23.50;52.00;;;;;;10354348;28;20152;-61
2024/02/15 22:18:19;;;;;;;2.80;2.20;;;23.30;52.00;;;;;;10357629;28;20042;-61
2024/02/15 22:23:22;;;;;;;4.85;2.50;;;23.30;52.00;;;;;;10355036;28;20401;-60
2024/02/15 22:28:24;;;;;;;4.50;2.15;;;23.30;51.90;;;;;;10355215;28;20068;-61
2024/02/15 22:33:26;;;;;;;4.97;2.13;;;23.30;52.00;;;;;;10351190;28;20049;-60
2024/02/15 22:38:29;;;;;;;5.70;2.33;;;23.20;52.00;;;;;;10348098;28;20407;-60
2024/02/15 22:43:33;;;;;;;4.28;2.33;;;23.10;52.10;;;;;;10340974;28;20047;-60
2024/02/15 22:48:34;;;;;;;3.47;2.13;;;23.10;52.10;;;;;;10345936;28;20046;-59
2024/02/15 22:53:40;;;;;;;3.60;2.40;;;23.10;52.00;;;;;;10355717;28;20050;-60
2024/02/15 22:58:42;;;;;;;3.13;1.90;;;22.90;52.10;;;;;;10352509;28;20480;-60
2024/02/15 23:03:44;;;;;;;3.95;2.20;;;22.90;52.10;;;;;;10361780;28;20043;-60
2024/02/15 23:08:47;;;;;;;3.50;1.80;;;22.90;52.20;;;;;;10364256;28;20078;-59
2024/02/15 23:13:49;;;;;;;3.72;2.10;;;22.90;52.20;;;;;;10361329;28;20057;-60
2024/02/15 23:18:50;;;;;;;2.10;1.60;;;22.80;52.30;;;;;;10363447;28;20054;-59
2024/02/15 23:23:53;;;;;;;3.15;1.77;;;22.70;52.20;;;;;;10367756;28;20054;-60
2024/02/15 23:28:55;;;;;;;2.88;1.85;;;22.70;52.30;;;;;;10359231;28;20048;-60
2024/02/15 23:33:57;;;;;;;3.30;1.88;;;22.60;52.30;;;;;;10366962;28;20056;-59
2024/02/15 23:44:19;;;;;;;3.57;1.70;;;22.50;52.20;;;;;;10359752;28;20097;-61
2024/02/15 23:49:21;;;;;;;3.08;1.70;;;22.50;52.30;;;;;;10355940;28;20072;-60
2024/02/15 23:54:24;;;;;;;4.65;2.05;;;22.50;52.20;;;;;;10353669;28;20048;-60
2024/02/15 23:59:27;;;;;;;3.28;1.77;;;22.40;52.20;;;;;;10346755;28;20053;-60
